sensor_id;sensor_type;location;lat;lon;timestamp;temperature;humidity
66610;DHT22;53468;48.276;14.416;2023-03-01T00:00:26;0.70;99.90
66610;DHT22;53468;48.276;14.416;2023-03-01T00:05:29;0.70;99.90
66610;DHT22;53468;48.276;14.416;2023-03-01T00:10:32;0.70;99.90
66610;DHT22;53468;48.276;14.416;2023-03-01T00:15:38;0.70;99.90
66610;DHT22;53468;48.276;14.416;2023-03-01T00:20:49;0.70;99.90
66610;DHT22;53468;48.276;14.416;2023-03-01T00:25:52;0.70;99.90
66610;DHT22;53468;48.276;14.416;2023-03-01T00:30:54;0.70;99.90
66610;DHT22;53468;48.276;14.416;2023-03-01T00:35:59;0.70;99.90
66610;DHT22;53468;48.276;14.416;2023-03-01T00:41:04;0.70;99.90
66610;DHT22;53468;48.276;14.416;2023-03-01T00:46:07;0.60;99.90
66610;DHT22;53468;48.276;14.416;2023-03-01T00:51:13;0.60;99.90
66610;DHT22;53468;48.276;14.416;2023-03-01T00:56:16;0.60;99.90
66610;DHT22;53468;48.276;14.416;2023-03-01T01:01:20;0.60;99.90
66610;DHT22;53468;48.276;14.416;2023-03-01T01:06:25;0.50;99.90
66610;DHT22;53468;48.276;14.416;2023-03-01T01:11:29;0.50;99.90
66610;DHT22;53468;48.276;14.416;2023-03-01T01:16:31;0.40;99.90
66610;DHT22;53468;48.276;14.416;2023-03-01T01:21:35;0.40;99.90
66610;DHT22;53468;48.276;14.416;2023-03-01T01:26:37;0.40;99.90
66610;DHT22;53468;48.276;14.416;2023-03-01T01:31:40;0.30;99.90
66610;DHT22;53468;48.276;14.416;2023-03-01T01:36:47;0.30;99.90
66610;DHT22;53468;48.276;14.416;2023-03-01T01:41:50;0.30;99.90
66610;DHT22;53468;48.276;14.416;2023-03-01T01:46:54;0.30;99.90
66610;DHT22;53468;48.276;14.416;2023-03-01T01:52:03;0.20;99.90
66610;DHT22;53468;48.276;14.416;2023-03-01T01:57:10;0.20;99.90
66610;DHT22;53468;48.276;14.416;2023-03-01T02:02:13;0.10;99.90
66610;DHT22;53468;48.276;14.416;2023-03-01T02:07:19;0.10;99.90
66610;DHT22;53468;48.276;14.416;2023-03-01T02:12:24;0.00;99.90
66610;DHT22;53468;48.276;14.416;2023-03-01T02:17:26;0.00;99.90
66610;DHT22;53468;48.276;14.416;2023-03-01T02:22:32;0.00;99.90
66610;DHT22;53468;48.276;14.416;2023-03-01T02:27:42;0.00;99.90
66610;DHT22;53468;48.276;14.416;2023-03-01T02:32:51;0.00;99.90
66610;DHT22;53468;48.276;14.416;2023-03-01T02:37:53;0.00;99.90
66610;DHT22;53468;48.276;14.416;2023-03-01T02:42:58;-0.10;99.90
66610;DHT22;53468;48.276;14.416;2023-03-01T02:48:02;-0.10;99.90
66610;DHT22;53468;48.276;14.416;2023-03-01T02:53:09;-0.10;99.90
66610;DHT22;53468;48.276;14.416;2023-03-01T02:58:12;0.00;99.90
66610;DHT22;53468;48.276;14.416;2023-03-01T03:03:17;-0.10;99.90
66610;DHT22;53468;48.276;14.416;2023-03-01T03:08:21;0.00;99.90
66610;DHT22;53468;48.276;14.416;2023-03-01T03:13:24;0.00;99.90
66610;DHT22;53468;48.276;14.416;2023-03-01T03:18:30;0.00;99.90
66610;DHT22;53468;48.276;14.416;2023-03-01T03:23:32;0.00;99.90
66610;DHT22;53468;48.276;14.416;2023-03-01T03:28:35;0.00;99.90
66610;DHT22;53468;48.276;14.416;2023-03-01T03:33:41;-0.10;99.90
66610;DHT22;53468;48.276;14.416;2023-03-01T03:38:44;-0.10;99.90
66610;DHT22;53468;48.276;14.416;2023-03-01T03:43:46;-0.10;99.90
66610;DHT22;53468;48.276;14.416;2023-03-01T03:48:51;-0.20;99.90
66610;DHT22;53468;48.276;14.416;2023-03-01T03:53:53;-0.20;99.90
66610;DHT22;53468;48.276;14.416;2023-03-01T03:58:55;-0.20;99.90
66610;DHT22;53468;48.276;14.416;2023-03-01T04:03:58;-0.30;99.90
66610;DHT22;53468;48.276;14.416;2023-03-01T04:09:04;-0.30;99.90
66610;DHT22;53468;48.276;14.416;2023-03-01T04:14:06;-0.30;99.90
66610;DHT22;53468;48.276;14.416;2023-03-01T04:19:09;-0.30;99.90
66610;DHT22;53468;48.276;14.416;2023-03-01T04:24:11;-0.40;99.90
66610;DHT22;53468;48.276;14.416;2023-03-01T04:29:13;-0.40;99.90
66610;DHT22;53468;48.276;14.416;2023-03-01T04:34:17;-0.50;99.90
66610;DHT22;53468;48.276;14.416;2023-03-01T04:39:19;-0.40;99.90
66610;DHT22;53468;48.276;14.416;2023-03-01T04:44:21;-0.40;99.90
66610;DHT22;53468;48.276;14.416;2023-03-01T04:49:25;-0.40;99.90
66610;DHT22;53468;48.276;14.416;2023-03-01T04:54:27;-0.40;99.90
66610;DHT22;53468;48.276;14.416;2023-03-01T04:59:29;-0.50;99.90
66610;DHT22;53468;48.276;14.416;2023-03-01T05:04:33;-0.40;99.90
66610;DHT22;53468;48.276;14.416;2023-03-01T05:09:35;-0.50;99.90
66610;DHT22;53468;48.276;14.416;2023-03-01T05:14:37;-0.50;99.90
66610;DHT22;53468;48.276;14.416;2023-03-01T05:19:40;-0.50;99.90
66610;DHT22;53468;48.276;14.416;2023-03-01T05:24:43;-0.50;99.90
66610;DHT22;53468;48.276;14.416;2023-03-01T05:29:45;-0.60;99.90
66610;DHT22;53468;48.276;14.416;2023-03-01T05:34:48;-0.60;99.90
66610;DHT22;53468;48.276;14.416;2023-03-01T05:39:52;-0.60;99.90
66610;DHT22;53468;48.276;14.416;2023-03-01T05:44:55;-0.60;99.90
66610;DHT22;53468;48.276;14.416;2023-03-01T05:49:58;-0.50;99.90
66610;DHT22;53468;48.276;14.416;2023-03-01T05:55:00;-0.60;99.90
66610;DHT22;53468;48.276;14.416;2023-03-01T06:00:03;-0.60;99.90
66610;DHT22;53468;48.276;14.416;2023-03-01T06:05:10;-0.50;99.90
66610;DHT22;53468;48.276;14.416;2023-03-01T06:10:13;-0.50;99.90
66610;DHT22;53468;48.276;14.416;2023-03-01T06:15:16;-0.50;99.90
66610;DHT22;53468;48.276;14.416;2023-03-01T06:20:21;-0.50;99.90
66610;DHT22;53468;48.276;14.416;2023-03-01T06:25:25;-0.40;99.90
66610;DHT22;53468;48.276;14.416;2023-03-01T06:30:28;-0.30;99.90
66610;DHT22;53468;48.276;14.416;2023-03-01T06:35:32;-0.20;99.90
66610;DHT22;53468;48.276;14.416;2023-03-01T06:40:34;-0.10;99.90
66610;DHT22;53468;48.276;14.416;2023-03-01T06:45:37;0.00;99.90
66610;DHT22;53468;48.276;14.416;2023-03-01T06:50:41;0.20;99.90
66610;DHT22;53468;48.276;14.416;2023-03-01T06:55:43;0.40;99.90
66610;DHT22;53468;48.276;14.416;2023-03-01T07:00:45;0.70;99.90
66610;DHT22;53468;48.276;14.416;2023-03-01T07:05:50;0.80;99.90
66610;DHT22;53468;48.276;14.416;2023-03-01T07:10:55;1.10;99.90
66610;DHT22;53468;48.276;14.416;2023-03-01T07:15:58;1.30;99.90
66610;DHT22;53468;48.276;14.416;2023-03-01T07:21:05;1.50;99.90
66610;DHT22;53468;48.276;14.416;2023-03-01T07:26:07;1.70;99.90
66610;DHT22;53468;48.276;14.416;2023-03-01T07:31:10;2.00;99.90
66610;DHT22;53468;48.276;14.416;2023-03-01T07:36:13;2.20;99.90
66610;DHT22;53468;48.276;14.416;2023-03-01T07:41:15;2.30;99.90
66610;DHT22;53468;48.276;14.416;2023-03-01T07:46:17;2.60;99.90
66610;DHT22;53468;48.276;14.416;2023-03-01T07:51:21;2.80;99.90
66610;DHT22;53468;48.276;14.416;2023-03-01T07:56:23;2.90;99.90
66610;DHT22;53468;48.276;14.416;2023-03-01T08:01:25;3.00;99.90
66610;DHT22;53468;48.276;14.416;2023-03-01T08:06:29;3.10;99.90
66610;DHT22;53468;48.276;14.416;2023-03-01T08:11:31;3.20;99.90
66610;DHT22;53468;48.276;14.416;2023-03-01T08:16:33;3.30;99.90
66610;DHT22;53468;48.276;14.416;2023-03-01T08:21:38;3.60;99.90
66610;DHT22;53468;48.276;14.416;2023-03-01T08:26:42;3.80;99.90
66610;DHT22;53468;48.276;14.416;2023-03-01T08:31:44;4.10;99.90
66610;DHT22;53468;48.276;14.416;2023-03-01T08:36:47;4.40;99.90
66610;DHT22;53468;48.276;14.416;2023-03-01T08:41:51;4.80;99.90
66610;DHT22;53468;48.276;14.416;2023-03-01T08:46:52;5.10;99.90
66610;DHT22;53468;48.276;14.416;2023-03-01T08:51:58;5.50;99.90
66610;DHT22;53468;48.276;14.416;2023-03-01T08:57:01;5.70;99.90
66610;DHT22;53468;48.276;14.416;2023-03-01T09:02:03;6.10;99.90
66610;DHT22;53468;48.276;14.416;2023-03-01T09:07:07;6.40;99.90
66610;DHT22;53468;48.276;14.416;2023-03-01T09:12:09;6.70;99.90
66610;DHT22;53468;48.276;14.416;2023-03-01T09:17:12;6.80;99.90
66610;DHT22;53468;48.276;14.416;2023-03-01T09:22:20;7.00;99.90
66610;DHT22;53468;48.276;14.416;2023-03-01T09:27:38;7.30;99.90
66610;DHT22;53468;48.276;14.416;2023-03-01T09:32:40;7.40;99.90
66610;DHT22;53468;48.276;14.416;2023-03-01T09:37:44;7.50;99.90
66610;DHT22;53468;48.276;14.416;2023-03-01T09:42:51;7.70;99.90
66610;DHT22;53468;48.276;14.416;2023-03-01T09:47:55;7.90;99.90
66610;DHT22;53468;48.276;14.416;2023-03-01T09:53:03;7.90;99.90
66610;DHT22;53468;48.276;14.416;2023-03-01T09:58:25;7.90;99.90
66610;DHT22;53468;48.276;14.416;2023-03-01T10:03:34;7.80;99.90
66610;DHT22;53468;48.276;14.416;2023-03-01T10:08:42;8.10;99.90
66610;DHT22;53468;48.276;14.416;2023-03-01T10:13:48;8.00;99.90
66610;DHT22;53468;48.276;14.416;2023-03-01T10:18:58;7.80;99.90
66610;DHT22;53468;48.276;14.416;2023-03-01T10:24:10;7.90;99.90
66610;DHT22;53468;48.276;14.416;2023-03-01T10:29:12;8.00;99.90
66610;DHT22;53468;48.276;14.416;2023-03-01T10:34:15;7.90;99.90
66610;DHT22;53468;48.276;14.416;2023-03-01T10:39:23;7.90;99.90
66610;DHT22;53468;48.276;14.416;2023-03-01T10:44:43;8.10;99.90
66610;DHT22;53468;48.276;14.416;2023-03-01T10:49:56;8.00;99.90
66610;DHT22;53468;48.276;14.416;2023-03-01T10:55:02;8.00;99.90
66610;DHT22;53468;48.276;14.416;2023-03-01T11:00:18;8.10;99.90
66610;DHT22;53468;48.276;14.416;2023-03-01T11:05:23;8.10;99.90
66610;DHT22;53468;48.276;14.416;2023-03-01T11:10:29;8.20;99.90
66610;DHT22;53468;48.276;14.416;2023-03-01T11:15:31;8.20;99.90
66610;DHT22;53468;48.276;14.416;2023-03-01T11:20:35;8.30;99.90
66610;DHT22;53468;48.276;14.416;2023-03-01T11:25:41;8.40;99.90
66610;DHT22;53468;48.276;14.416;2023-03-01T11:30:49;8.30;99.90
66610;DHT22;53468;48.276;14.416;2023-03-01T11:35:55;8.40;99.90
66610;DHT22;53468;48.276;14.416;2023-03-01T11:41:05;8.50;99.90
66610;DHT22;53468;48.276;14.416;2023-03-01T11:46:38;8.50;99.90
66610;DHT22;53468;48.276;14.416;2023-03-01T11:51:49;8.60;99.90
66610;DHT22;53468;48.276;14.416;2023-03-01T11:56:57;8.50;99.90
66610;DHT22;53468;48.276;14.416;2023-03-01T12:07:39;8.60;99.90
66610;DHT22;53468;48.276;14.416;2023-03-01T12:12:57;8.70;99.90
66610;DHT22;53468;48.276;14.416;2023-03-01T12:18:21;8.60;99.90
66610;DHT22;53468;48.276;14.416;2023-03-01T12:23:39;8.70;99.90
66610;DHT22;53468;48.276;14.416;2023-03-01T12:29:07;8.60;99.90
66610;DHT22;53468;48.276;14.416;2023-03-01T12:34:29;8.50;99.90
66610;DHT22;53468;48.276;14.416;2023-03-01T12:39:45;8.60;99.90
66610;DHT22;53468;48.276;14.416;2023-03-01T12:45:02;8.50;99.90
66610;DHT22;53468;48.276;14.416;2023-03-01T12:50:15;8.60;99.90
66610;DHT22;53468;48.276;14.416;2023-03-01T12:55:26;8.50;99.90
66610;DHT22;53468;48.276;14.416;2023-03-01T13:00:37;8.50;99.90
66610;DHT22;53468;48.276;14.416;2023-03-01T13:05:45;8.50;99.90
66610;DHT22;53468;48.276;14.416;2023-03-01T13:10:55;8.60;99.90
66610;DHT22;53468;48.276;14.416;2023-03-01T13:16:20;8.50;99.90
66610;DHT22;53468;48.276;14.416;2023-03-01T13:21:31;8.50;99.90
66610;DHT22;53468;48.276;14.416;2023-03-01T13:27:09;8.50;99.90
66610;DHT22;53468;48.276;14.416;2023-03-01T13:32:22;8.50;99.90
66610;DHT22;53468;48.276;14.416;2023-03-01T13:37:34;8.60;99.90
66610;DHT22;53468;48.276;14.416;2023-03-01T13:42:42;8.70;99.90
66610;DHT22;53468;48.276;14.416;2023-03-01T13:47:50;8.80;99.90
66610;DHT22;53468;48.276;14.416;2023-03-01T13:52:57;8.80;99.90
66610;DHT22;53468;48.276;14.416;2023-03-01T13:58:03;8.80;99.90
66610;DHT22;53468;48.276;14.416;2023-03-01T14:03:13;8.80;99.90
66610;DHT22;53468;48.276;14.416;2023-03-01T14:08:20;8.80;99.90
66610;DHT22;53468;48.276;14.416;2023-03-01T14:13:32;8.80;99.90
66610;DHT22;53468;48.276;14.416;2023-03-01T14:18:45;8.90;99.90
66610;DHT22;53468;48.276;14.416;2023-03-01T14:23:49;8.90;99.90
66610;DHT22;53468;48.276;14.416;2023-03-01T14:28:52;9.00;99.90
66610;DHT22;53468;48.276;14.416;2023-03-01T14:33:56;8.90;99.90
66610;DHT22;53468;48.276;14.416;2023-03-01T14:38:59;8.90;99.90
66610;DHT22;53468;48.276;14.416;2023-03-01T14:44:07;8.90;99.90
66610;DHT22;53468;48.276;14.416;2023-03-01T14:49:17;9.00;99.90
66610;DHT22;53468;48.276;14.416;2023-03-01T14:54:26;8.90;99.90
66610;DHT22;53468;48.276;14.416;2023-03-01T14:59:29;8.90;99.90
66610;DHT22;53468;48.276;14.416;2023-03-01T15:04:33;8.80;99.90
66610;DHT22;53468;48.276;14.416;2023-03-01T15:09:36;8.80;99.90
66610;DHT22;53468;48.276;14.416;2023-03-01T15:14:40;8.80;99.90
66610;DHT22;53468;48.276;14.416;2023-03-01T15:19:45;8.80;99.90
66610;DHT22;53468;48.276;14.416;2023-03-01T15:24:48;8.70;99.90
66610;DHT22;53468;48.276;14.416;2023-03-01T15:29:53;8.60;99.90
66610;DHT22;53468;48.276;14.416;2023-03-01T15:34:57;8.60;99.90
66610;DHT22;53468;48.276;14.416;2023-03-01T15:40:00;8.50;99.90
66610;DHT22;53468;48.276;14.416;2023-03-01T15:45:09;8.40;99.90
66610;DHT22;53468;48.276;14.416;2023-03-01T15:50:18;8.30;99.90
66610;DHT22;53468;48.276;14.416;2023-03-01T15:55:23;8.10;99.90
66610;DHT22;53468;48.276;14.416;2023-03-01T16:00:26;8.00;99.90
66610;DHT22;53468;48.276;14.416;2023-03-01T16:05:32;7.90;99.90
66610;DHT22;53468;48.276;14.416;2023-03-01T16:10:35;7.80;99.90
66610;DHT22;53468;48.276;14.416;2023-03-01T16:15:38;7.60;99.90
66610;DHT22;53468;48.276;14.416;2023-03-01T16:20:41;7.50;99.90
66610;DHT22;53468;48.276;14.416;2023-03-01T16:25:44;7.20;99.90
66610;DHT22;53468;48.276;14.416;2023-03-01T16:30:47;7.00;99.90
66610;DHT22;53468;48.276;14.416;2023-03-01T16:35:51;6.90;99.90
66610;DHT22;53468;48.276;14.416;2023-03-01T16:40:56;6.70;99.90
66610;DHT22;53468;48.276;14.416;2023-03-01T16:45:58;6.50;99.90
66610;DHT22;53468;48.276;14.416;2023-03-01T16:51:05;6.30;99.90
66610;DHT22;53468;48.276;14.416;2023-03-01T16:56:10;6.20;99.90
66610;DHT22;53468;48.276;14.416;2023-03-01T17:01:16;6.00;99.90
66610;DHT22;53468;48.276;14.416;2023-03-01T17:06:21;5.90;99.90
66610;DHT22;53468;48.276;14.416;2023-03-01T17:11:25;5.80;99.90
66610;DHT22;53468;48.276;14.416;2023-03-01T17:16:27;5.60;99.90
66610;DHT22;53468;48.276;14.416;2023-03-01T17:21:31;5.50;99.90
66610;DHT22;53468;48.276;14.416;2023-03-01T17:26:33;5.40;99.90
66610;DHT22;53468;48.276;14.416;2023-03-01T17:31:35;5.30;99.90
66610;DHT22;53468;48.276;14.416;2023-03-01T17:36:38;5.20;99.90
66610;DHT22;53468;48.276;14.416;2023-03-01T17:41:44;5.10;99.90
66610;DHT22;53468;48.276;14.416;2023-03-01T17:46:46;4.90;99.90
66610;DHT22;53468;48.276;14.416;2023-03-01T17:51:49;4.80;99.90
66610;DHT22;53468;48.276;14.416;2023-03-01T17:56:52;4.70;99.90
66610;DHT22;53468;48.276;14.416;2023-03-01T18:01:55;4.70;99.90
66610;DHT22;53468;48.276;14.416;2023-03-01T18:06:59;4.60;99.90
66610;DHT22;53468;48.276;14.416;2023-03-01T18:12:01;4.50;99.90
66610;DHT22;53468;48.276;14.416;2023-03-01T18:17:04;4.40;99.90
66610;DHT22;53468;48.276;14.416;2023-03-01T18:22:13;4.30;99.90
66610;DHT22;53468;48.276;14.416;2023-03-01T18:27:16;4.20;99.90
66610;DHT22;53468;48.276;14.416;2023-03-01T18:32:18;4.00;99.90
66610;DHT22;53468;48.276;14.416;2023-03-01T18:37:21;4.00;99.90
66610;DHT22;53468;48.276;14.416;2023-03-01T18:42:24;4.00;99.90
66610;DHT22;53468;48.276;14.416;2023-03-01T18:47:26;3.90;99.90
66610;DHT22;53468;48.276;14.416;2023-03-01T18:52:29;3.90;99.90
66610;DHT22;53468;48.276;14.416;2023-03-01T18:57:31;3.80;99.90
66610;DHT22;53468;48.276;14.416;2023-03-01T19:02:33;3.70;99.90
66610;DHT22;53468;48.276;14.416;2023-03-01T19:07:37;3.70;99.90
66610;DHT22;53468;48.276;14.416;2023-03-01T19:12:39;3.70;99.90
66610;DHT22;53468;48.276;14.416;2023-03-01T19:17:41;3.60;99.90
66610;DHT22;53468;48.276;14.416;2023-03-01T19:22:44;3.60;99.90
66610;DHT22;53468;48.276;14.416;2023-03-01T19:27:46;3.50;99.90
66610;DHT22;53468;48.276;14.416;2023-03-01T19:32:49;3.40;99.90
66610;DHT22;53468;48.276;14.416;2023-03-01T19:37:53;3.30;99.90
66610;DHT22;53468;48.276;14.416;2023-03-01T19:42:55;3.30;99.90
66610;DHT22;53468;48.276;14.416;2023-03-01T19:47:57;3.30;99.90
66610;DHT22;53468;48.276;14.416;2023-03-01T19:53:00;3.30;99.90
66610;DHT22;53468;48.276;14.416;2023-03-01T19:58:03;3.30;99.90
66610;DHT22;53468;48.276;14.416;2023-03-01T20:03:05;3.10;99.90
66610;DHT22;53468;48.276;14.416;2023-03-01T20:08:09;3.10;99.90
66610;DHT22;53468;48.276;14.416;2023-03-01T20:13:11;3.00;99.90
66610;DHT22;53468;48.276;14.416;2023-03-01T20:18:13;3.00;99.90
66610;DHT22;53468;48.276;14.416;2023-03-01T20:23:17;2.90;99.90
66610;DHT22;53468;48.276;14.416;2023-03-01T20:28:19;2.80;99.90
66610;DHT22;53468;48.276;14.416;2023-03-01T20:33:22;2.70;99.90
66610;DHT22;53468;48.276;14.416;2023-03-01T20:38:26;2.70;99.90
66610;DHT22;53468;48.276;14.416;2023-03-01T20:43:28;2.70;99.90
66610;DHT22;53468;48.276;14.416;2023-03-01T20:48:30;2.70;99.90
66610;DHT22;53468;48.276;14.416;2023-03-01T20:53:34;2.70;99.90
66610;DHT22;53468;48.276;14.416;2023-03-01T20:58:37;2.60;99.90
66610;DHT22;53468;48.276;14.416;2023-03-01T21:03:39;2.70;99.90
66610;DHT22;53468;48.276;14.416;2023-03-01T21:08:43;2.70;99.90
66610;DHT22;53468;48.276;14.416;2023-03-01T21:13:45;2.80;99.90
66610;DHT22;53468;48.276;14.416;2023-03-01T21:18:47;2.80;99.90
66610;DHT22;53468;48.276;14.416;2023-03-01T21:23:52;2.80;99.90
66610;DHT22;53468;48.276;14.416;2023-03-01T21:28:56;2.80;99.90
66610;DHT22;53468;48.276;14.416;2023-03-01T21:34:02;2.80;99.90
66610;DHT22;53468;48.276;14.416;2023-03-01T21:39:06;2.90;99.90
66610;DHT22;53468;48.276;14.416;2023-03-01T21:44:08;2.90;99.90
66610;DHT22;53468;48.276;14.416;2023-03-01T21:49:10;2.90;99.90
66610;DHT22;53468;48.276;14.416;2023-03-01T21:54:15;2.90;99.90
66610;DHT22;53468;48.276;14.416;2023-03-01T21:59:20;2.90;99.90
66610;DHT22;53468;48.276;14.416;2023-03-01T22:04:22;2.90;99.90
66610;DHT22;53468;48.276;14.416;2023-03-01T22:09:26;2.90;99.90
66610;DHT22;53468;48.276;14.416;2023-03-01T22:14:29;2.80;99.90
66610;DHT22;53468;48.276;14.416;2023-03-01T22:19:31;2.80;99.90
66610;DHT22;53468;48.276;14.416;2023-03-01T22:24:35;2.80;99.90
66610;DHT22;53468;48.276;14.416;2023-03-01T22:29:37;2.70;99.90
66610;DHT22;53468;48.276;14.416;2023-03-01T22:34:39;2.70;99.90
66610;DHT22;53468;48.276;14.416;2023-03-01T22:39:43;2.60;99.90
66610;DHT22;53468;48.276;14.416;2023-03-01T22:44:44;2.50;99.90
66610;DHT22;53468;48.276;14.416;2023-03-01T22:49:47;2.50;99.90
66610;DHT22;53468;48.276;14.416;2023-03-01T22:54:52;2.50;99.90
66610;DHT22;53468;48.276;14.416;2023-03-01T22:59:55;2.50;99.90
66610;DHT22;53468;48.276;14.416;2023-03-01T23:04:57;2.50;99.90
66610;DHT22;53468;48.276;14.416;2023-03-01T23:10:00;2.50;99.90
66610;DHT22;53468;48.276;14.416;2023-03-01T23:15:03;2.60;99.90
66610;DHT22;53468;48.276;14.416;2023-03-01T23:20:06;2.60;99.90
66610;DHT22;53468;48.276;14.416;2023-03-01T23:25:11;2.60;99.90
66610;DHT22;53468;48.276;14.416;2023-03-01T23:30:14;2.60;99.90
66610;DHT22;53468;48.276;14.416;2023-03-01T23:35:16;2.70;99.90
66610;DHT22;53468;48.276;14.416;2023-03-01T23:40:21;2.70;99.90
66610;DHT22;53468;48.276;14.416;2023-03-01T23:45:23;2.70;99.90
66610;DHT22;53468;48.276;14.416;2023-03-01T23:50:25;2.70;99.90
66610;DHT22;53468;48.276;14.416;2023-03-01T23:55:29;2.80;99.90
